createdAt,value
2019-02-22T00:00:53.556Z,39.80
2019-02-22T00:03:22.037Z,39.90
2019-02-22T00:05:50.609Z,39.90
2019-02-22T00:08:19.159Z,39.90
2019-02-22T00:10:47.666Z,40.10
2019-02-22T00:13:16.229Z,40.00
2019-02-22T00:15:44.743Z,40.00
2019-02-22T00:18:13.303Z,40.10
2019-02-22T00:20:41.857Z,40.10
2019-02-22T00:23:10.343Z,40.00
2019-02-22T00:25:38.827Z,40.10
2019-02-22T00:28:07.340Z,40.10
2019-02-22T00:30:35.825Z,40.10
2019-02-22T00:33:04.406Z,40.30
2019-02-22T00:35:32.957Z,40.40
2019-02-22T00:38:01.425Z,40.40
2019-02-22T00:40:29.907Z,40.50
2019-02-22T00:42:58.407Z,40.50
2019-02-22T00:45:26.872Z,40.70
2019-02-22T00:47:55.370Z,40.70
2019-02-22T00:50:23.912Z,40.80
2019-02-22T00:52:52.487Z,41.00
2019-02-22T00:55:20.964Z,40.90
2019-02-22T00:57:49.464Z,40.90
2019-02-22T01:00:18.010Z,41.00
2019-02-22T01:02:46.571Z,41.10
2019-02-22T01:05:15.105Z,41.20
2019-02-22T01:07:44.234Z,41.30
2019-02-22T01:10:12.878Z,41.30
2019-02-22T01:12:41.413Z,41.40
2019-02-22T01:15:09.894Z,41.50
2019-02-22T01:17:38.362Z,42.10
2019-02-22T01:20:06.988Z,41.70
2019-02-22T01:22:35.537Z,41.90
2019-02-22T01:25:04.391Z,41.90
2019-02-22T01:27:32.857Z,41.80
2019-02-22T01:30:01.375Z,42.20
2019-02-22T01:32:29.927Z,42.30
2019-02-22T01:34:58.408Z,42.10
2019-02-22T01:37:26.897Z,42.30
2019-02-22T01:39:55.455Z,42.30
2019-02-22T01:42:23.919Z,42.60
2019-02-22T01:44:52.500Z,42.60
2019-02-22T01:47:21.053Z,42.60
2019-02-22T01:49:49.609Z,43.00
2019-02-22T01:52:18.061Z,43.00
2019-02-22T01:54:46.574Z,43.10
2019-02-22T01:57:15.131Z,43.20
2019-02-22T01:59:43.661Z,43.40
2019-02-22T02:02:12.163Z,43.40
2019-02-22T02:04:40.631Z,43.50
2019-02-22T02:07:09.201Z,43.60
2019-02-22T02:09:37.744Z,43.90
2019-02-22T02:12:06.247Z,43.80
2019-02-22T02:14:34.775Z,43.80
2019-02-22T02:17:03.260Z,43.90
2019-02-22T02:19:31.741Z,44.00
2019-02-22T02:22:00.307Z,44.00
2019-02-22T02:24:28.788Z,44.20
2019-02-22T02:26:57.299Z,44.20
2019-02-22T02:29:25.847Z,44.30
2019-02-22T02:31:54.406Z,44.20
2019-02-22T02:34:22.980Z,44.00
2019-02-22T02:36:51.446Z,44.20
2019-02-22T02:39:19.940Z,44.00
2019-02-22T02:41:48.491Z,44.10
2019-02-22T02:44:16.996Z,44.10
2019-02-22T02:46:45.557Z,44.10
2019-02-22T02:49:14.100Z,44.10
2019-02-22T02:51:42.570Z,44.10
2019-02-22T02:54:11.062Z,44.00
2019-02-22T02:56:39.543Z,44.00
2019-02-22T02:59:08.137Z,44.00
2019-02-22T03:01:36.685Z,44.10
2019-02-22T03:04:05.298Z,44.00
2019-02-22T03:06:38.170Z,44.20
2019-02-22T03:09:08.699Z,44.20
2019-02-22T03:11:37.224Z,44.10
2019-02-22T03:14:05.835Z,44.20
2019-02-22T03:16:34.316Z,44.30
2019-02-22T03:19:02.851Z,44.20
2019-02-22T03:21:31.402Z,44.50
2019-02-22T03:23:59.854Z,44.50
2019-02-22T03:26:28.408Z,44.40
2019-02-22T03:28:56.891Z,44.50
2019-02-22T03:31:28.113Z,44.60
2019-02-22T03:33:56.610Z,44.50
2019-02-22T03:36:25.162Z,44.50
2019-02-22T03:38:53.700Z,44.60
2019-02-22T03:41:32.217Z,44.70
2019-02-22T03:43:55.169Z,44.70
2019-02-22T03:46:23.634Z,44.80
2019-02-22T03:48:52.118Z,44.70
2019-02-22T03:51:20.582Z,44.70
2019-02-22T03:53:49.845Z,44.70
2019-02-22T03:56:18.379Z,45.00
2019-02-22T03:58:46.958Z,45.00
2019-02-22T04:01:15.518Z,45.00
2019-02-22T04:03:44.075Z,45.10
2019-02-22T04:06:12.527Z,45.20
2019-02-22T04:08:41.015Z,45.50
2019-02-22T04:11:09.556Z,45.60
2019-02-22T04:13:38.050Z,45.50
2019-02-22T04:16:06.612Z,45.90
2019-02-22T04:18:35.166Z,45.80
2019-02-22T04:21:03.672Z,45.60
2019-02-22T04:23:32.193Z,46.20
2019-02-22T04:26:00.701Z,45.90
2019-02-22T04:28:29.255Z,46.10
2019-02-22T04:30:57.828Z,46.10
2019-02-22T04:33:26.312Z,46.10
2019-02-22T04:35:54.882Z,46.30
2019-02-22T04:38:23.414Z,46.60
2019-02-22T04:40:51.891Z,46.60
2019-02-22T04:43:20.377Z,46.50
2019-02-22T04:45:48.946Z,46.50
2019-02-22T04:48:17.481Z,46.70
2019-02-22T04:50:45.956Z,46.80
2019-02-22T04:53:14.528Z,46.80
2019-02-22T04:55:43.019Z,47.10
2019-02-22T04:58:11.583Z,46.90
2019-02-22T05:00:40.138Z,47.00
2019-02-22T05:03:08.716Z,47.00
2019-02-22T05:05:37.269Z,47.20
2019-02-22T05:08:05.843Z,47.20
2019-02-22T05:10:34.332Z,47.20
2019-02-22T05:13:02.836Z,47.50
2019-02-22T05:15:31.372Z,47.40
2019-02-22T05:17:59.855Z,47.50
2019-02-22T05:20:28.322Z,47.50
2019-02-22T05:23:03.827Z,47.80
2019-02-22T05:25:26.996Z,47.70
2019-02-22T05:27:55.508Z,47.70
2019-02-22T05:30:24.056Z,48.20
2019-02-22T05:32:52.634Z,48.20
2019-02-22T05:35:21.173Z,48.30
2019-02-22T05:37:49.637Z,48.40
2019-02-22T05:40:18.146Z,48.60
2019-02-22T05:42:46.685Z,48.50
2019-02-22T05:45:15.267Z,48.70
2019-02-22T05:47:43.811Z,48.80
2019-02-22T05:50:15.225Z,49.10
2019-02-22T05:52:43.843Z,49.10
2019-02-22T05:55:12.312Z,49.20
2019-02-22T05:57:40.773Z,49.20
2019-02-22T06:00:09.547Z,49.30
2019-02-22T06:02:38.080Z,49.30
2019-02-22T06:05:07.122Z,49.40
2019-02-22T06:07:35.652Z,49.40
2019-02-22T06:10:06.199Z,49.30
2019-02-22T06:12:35.144Z,49.40
2019-02-22T06:15:04.413Z,49.30
2019-02-22T06:17:32.941Z,49.30
2019-02-22T06:20:01.438Z,49.40
2019-02-22T06:22:30.163Z,49.40
2019-02-22T06:24:58.739Z,49.30
2019-02-22T06:27:27.336Z,49.50
2019-02-22T06:29:55.911Z,49.40
2019-02-22T06:32:24.403Z,49.40
2019-02-22T06:34:52.869Z,49.40
2019-02-22T06:37:21.391Z,49.50
2019-02-22T06:39:49.929Z,49.40
2019-02-22T06:42:18.442Z,49.70
2019-02-22T06:44:47.042Z,49.40
2019-02-22T06:47:15.627Z,49.70
2019-02-22T06:49:44.608Z,49.30
2019-02-22T06:52:13.240Z,49.30
2019-02-22T06:54:41.739Z,49.30
2019-02-22T06:57:10.278Z,49.30
2019-02-22T06:59:38.767Z,49.20
2019-02-22T07:02:07.243Z,49.20
2019-02-22T07:04:35.730Z,49.20
2019-02-22T07:07:04.220Z,49.30
2019-02-22T07:09:32.814Z,49.20
2019-02-22T07:12:02.981Z,49.40
2019-02-22T07:14:31.481Z,49.40
2019-02-22T07:17:00.027Z,49.70
2019-02-22T07:19:28.521Z,49.50
2019-02-22T07:21:57.077Z,50.00
2019-02-22T07:24:25.630Z,49.80
2019-02-22T07:26:54.084Z,49.80
2019-02-22T07:29:22.622Z,50.10
2019-02-22T07:31:51.189Z,50.10
2019-02-22T07:34:19.754Z,50.20
2019-02-22T07:36:48.286Z,50.40
2019-02-22T07:39:27.419Z,50.50
2019-02-22T07:41:49.956Z,50.70
2019-02-22T07:44:18.480Z,50.60
2019-02-22T07:46:46.983Z,50.50
2019-02-22T07:49:23.630Z,50.60
2019-02-22T07:51:52.184Z,50.70
2019-02-22T07:54:20.651Z,50.80
2019-02-22T07:56:49.163Z,50.60
2019-02-22T07:59:17.694Z,50.80
2019-02-22T08:01:48.005Z,50.60
2019-02-22T08:04:16.382Z,50.70
2019-02-22T08:06:44.889Z,50.60
2019-02-22T08:09:13.446Z,50.50
2019-02-22T08:11:41.950Z,50.60
2019-02-22T08:14:10.490Z,50.60
2019-02-22T08:16:39.040Z,50.60
2019-02-22T08:19:07.516Z,50.40
2019-02-22T08:21:35.992Z,50.30
2019-02-22T08:24:04.475Z,50.40
2019-02-22T08:26:33.052Z,50.30
2019-02-22T08:29:01.623Z,50.30
2019-02-22T08:31:30.172Z,50.30
2019-02-22T08:33:58.730Z,50.30
2019-02-22T08:36:27.194Z,50.40
2019-02-22T08:38:55.740Z,50.30
2019-02-22T08:41:24.223Z,50.40
2019-02-22T08:43:52.846Z,50.40
2019-02-22T08:46:21.308Z,50.20
2019-02-22T08:48:49.816Z,50.00
2019-02-22T08:51:18.304Z,49.90
2019-02-22T08:53:46.888Z,50.00
2019-02-22T08:56:15.418Z,50.20
2019-02-22T08:58:43.986Z,50.30
2019-02-22T09:01:12.460Z,50.30
2019-02-22T09:03:49.971Z,50.20
2019-02-22T09:06:11.142Z,50.30
2019-02-22T09:08:39.634Z,50.50
2019-02-22T09:11:08.262Z,50.80
2019-02-22T09:13:43.697Z,50.90
2019-02-22T09:16:06.937Z,51.10
2019-02-22T09:18:35.416Z,51.40
2019-02-22T09:21:04.040Z,51.50
2019-02-22T09:23:32.513Z,51.50
2019-02-22T09:26:01.067Z,51.50
2019-02-22T09:28:29.545Z,51.50
2019-02-22T09:30:58.104Z,51.00
2019-02-22T09:33:26.638Z,50.70
2019-02-22T09:35:55.122Z,50.70
2019-02-22T09:38:23.605Z,50.60
2019-02-22T09:40:52.159Z,50.50
2019-02-22T09:43:20.628Z,50.20
2019-02-22T09:45:49.193Z,50.10
2019-02-22T09:48:17.740Z,50.00
2019-02-22T09:50:46.264Z,49.60
2019-02-22T09:53:14.749Z,49.20
2019-02-22T09:55:43.225Z,48.40
2019-02-22T09:58:11.718Z,47.90
2019-02-22T10:00:40.214Z,47.70
2019-02-22T10:03:08.686Z,47.50
2019-02-22T10:05:37.150Z,46.20
2019-02-22T10:08:05.885Z,46.00
2019-02-22T10:10:34.402Z,45.70
2019-02-22T10:13:02.913Z,45.50
2019-02-22T10:15:31.389Z,45.80
2019-02-22T10:17:59.955Z,45.50
2019-02-22T10:20:28.506Z,45.30
2019-02-22T10:22:57.060Z,45.30
2019-02-22T10:25:25.607Z,45.30
2019-02-22T10:27:54.065Z,45.40
2019-02-22T10:30:22.567Z,45.40
2019-02-22T10:32:51.047Z,45.10
2019-02-22T10:35:19.690Z,45.20
2019-02-22T10:37:48.302Z,45.00
2019-02-22T10:40:16.781Z,44.90
2019-02-22T10:42:45.237Z,44.90
2019-02-22T10:45:13.719Z,44.90
2019-02-22T10:47:43.105Z,45.10
2019-02-22T10:50:11.573Z,45.20
2019-02-22T10:52:40.037Z,45.00
2019-02-22T10:55:11.097Z,44.70
2019-02-22T10:57:39.666Z,44.50
2019-02-22T11:00:13.401Z,44.30
2019-02-22T11:02:41.903Z,44.00
2019-02-22T11:05:10.853Z,43.30
2019-02-22T11:07:39.413Z,43.30
2019-02-22T11:10:10.418Z,42.60
2019-02-22T11:12:38.962Z,42.30
2019-02-22T11:15:09.968Z,42.10
2019-02-22T11:17:38.515Z,42.10
2019-02-22T11:20:11.425Z,41.80
2019-02-22T11:22:40.000Z,41.80
2019-02-22T11:25:13.052Z,41.60
2019-02-22T11:27:41.622Z,41.60
2019-02-22T11:30:12.983Z,41.20
2019-02-22T11:32:41.652Z,41.40
2019-02-22T11:35:10.639Z,41.60
2019-02-22T11:37:39.125Z,41.50
2019-02-22T11:40:11.445Z,41.10
2019-02-22T11:42:39.899Z,40.70
2019-02-22T11:45:09.618Z,40.80
2019-02-22T11:47:38.343Z,40.80
2019-02-22T11:50:10.934Z,40.90
2019-02-22T11:52:39.486Z,41.00
2019-02-22T11:55:09.391Z,40.90
2019-02-22T11:57:37.845Z,40.20
2019-02-22T12:00:18.958Z,40.20
2019-02-22T12:02:47.985Z,40.10
2019-02-22T12:05:16.449Z,39.70
2019-02-22T12:07:44.933Z,39.60
2019-02-22T12:10:14.249Z,39.00
2019-02-22T12:12:45.793Z,39.00
2019-02-22T12:15:14.782Z,39.10
2019-02-22T12:17:43.311Z,39.10
2019-02-22T12:20:12.107Z,39.20
2019-02-22T12:22:40.576Z,39.40
2019-02-22T12:25:13.117Z,39.50
2019-02-22T12:27:41.635Z,39.40
2019-02-22T12:30:13.081Z,39.60
2019-02-22T12:32:41.637Z,39.90
2019-02-22T12:35:10.191Z,39.70
2019-02-22T12:37:38.752Z,39.60
2019-02-22T12:40:09.741Z,39.70
2019-02-22T12:42:38.380Z,39.70
2019-02-22T12:45:09.538Z,39.70
2019-02-22T12:47:38.037Z,39.70
2019-02-22T12:50:11.504Z,39.60
2019-02-22T12:52:40.141Z,39.70
2019-02-22T12:55:09.546Z,39.70
2019-02-22T12:57:38.143Z,39.60
2019-02-22T13:00:14.803Z,39.80
2019-02-22T13:02:43.265Z,39.80
2019-02-22T13:05:24.168Z,39.70
2019-02-22T13:07:53.228Z,39.70
2019-02-22T13:10:21.787Z,39.80
2019-02-22T13:12:50.343Z,39.80
2019-02-22T13:15:18.889Z,39.90
2019-02-22T13:17:47.350Z,40.00
2019-02-22T13:20:15.851Z,40.30
2019-02-22T13:22:44.391Z,40.20
2019-02-22T13:25:13.023Z,40.40
2019-02-22T13:27:41.561Z,39.90
2019-02-22T13:30:14.939Z,40.10
2019-02-22T13:32:43.491Z,40.40
2019-02-22T13:35:12.114Z,40.60
2019-02-22T13:37:40.783Z,40.80
2019-02-22T13:40:14.298Z,41.10
2019-02-22T13:42:42.932Z,41.10
2019-02-22T13:45:12.218Z,41.30
2019-02-22T13:47:40.796Z,41.50
2019-02-22T13:50:15.412Z,41.70
2019-02-22T13:52:43.997Z,41.80
2019-02-22T13:55:13.086Z,41.80
2019-02-22T13:57:41.593Z,41.80
2019-02-22T14:00:18.258Z,41.50
2019-02-22T14:02:46.813Z,40.90
2019-02-22T14:05:15.277Z,40.60
2019-02-22T14:07:54.032Z,40.40
2019-02-22T14:10:22.726Z,40.40
2019-02-22T14:12:51.275Z,39.80
2019-02-22T14:15:19.802Z,39.90
2019-02-22T14:17:48.415Z,39.30
2019-02-22T14:20:17.005Z,38.90
2019-02-22T14:22:46.222Z,38.80
2019-02-22T14:25:14.702Z,38.90
2019-02-22T14:27:43.285Z,38.90
2019-02-22T14:30:16.663Z,38.90
2019-02-22T14:32:45.480Z,38.80
2019-02-22T14:35:14.027Z,38.70
2019-02-22T14:37:42.496Z,38.70
2019-02-22T14:40:13.120Z,39.10
2019-02-22T14:42:41.658Z,38.80
2019-02-22T14:45:11.465Z,38.70
2019-02-22T14:47:40.054Z,38.80
2019-02-22T14:50:14.248Z,38.70
2019-02-22T14:52:42.704Z,38.40
2019-02-22T14:55:11.270Z,38.20
2019-02-22T14:57:39.823Z,37.90
2019-02-22T15:00:11.782Z,37.90
2019-02-22T15:02:40.254Z,37.70
2019-02-22T15:05:10.034Z,37.70
2019-02-22T15:07:38.562Z,37.70
2019-02-22T15:10:09.089Z,37.70
2019-02-22T15:12:37.648Z,37.60
2019-02-22T15:15:09.216Z,37.50
2019-02-22T15:17:39.362Z,37.40
2019-02-22T15:20:08.890Z,37.40
2019-02-22T15:22:37.472Z,37.40
2019-02-22T15:25:11.185Z,37.50
2019-02-22T15:27:39.678Z,37.60
2019-02-22T15:30:10.780Z,37.60
2019-02-22T15:32:39.335Z,37.60
2019-02-22T15:35:15.520Z,37.60
2019-02-22T15:37:44.011Z,37.70
2019-02-22T15:40:13.447Z,37.80
2019-02-22T15:42:42.026Z,37.80
2019-02-22T15:45:15.209Z,37.70
2019-02-22T15:47:43.759Z,37.60
2019-02-22T15:50:14.487Z,37.50
2019-02-22T15:52:43.394Z,37.60
2019-02-22T15:55:14.288Z,37.60
2019-02-22T15:57:42.201Z,37.60
2019-02-22T16:00:22.887Z,37.50
2019-02-22T16:02:51.424Z,37.50
2019-02-22T16:05:21.521Z,37.40
2019-02-22T16:07:50.114Z,37.30
2019-02-22T16:10:18.714Z,37.70
2019-02-22T16:12:47.179Z,37.30
2019-02-22T16:15:16.447Z,37.30
2019-02-22T16:17:44.928Z,37.40
2019-02-22T16:20:14.119Z,37.40
2019-02-22T16:22:42.706Z,37.30
2019-02-22T16:25:18.989Z,37.40
2019-02-22T16:27:41.384Z,37.50
2019-02-22T16:30:13.075Z,37.40
2019-02-22T16:32:41.533Z,37.30
2019-02-22T16:35:10.029Z,37.00
2019-02-22T16:37:38.563Z,37.10
2019-02-22T16:40:09.706Z,37.00
2019-02-22T16:42:38.277Z,37.00
2019-02-22T16:45:11.457Z,36.90
2019-02-22T16:47:40.641Z,37.00
2019-02-22T16:50:13.910Z,37.00
2019-02-22T16:52:45.091Z,37.00
2019-02-22T16:55:14.619Z,36.90
2019-02-22T16:57:43.234Z,36.80
2019-02-22T17:00:13.951Z,36.90
2019-02-22T17:02:42.592Z,36.80
2019-02-22T17:05:13.482Z,36.80
2019-02-22T17:07:41.979Z,36.60
2019-02-22T17:10:11.395Z,36.50
2019-02-22T17:12:39.951Z,36.40
2019-02-22T17:15:11.117Z,36.50
2019-02-22T17:17:39.609Z,36.30
2019-02-22T17:20:10.860Z,36.30
2019-02-22T17:22:39.362Z,36.20
2019-02-22T17:25:10.843Z,36.10
2019-02-22T17:27:39.366Z,35.90
2019-02-22T17:30:15.789Z,35.70
2019-02-22T17:32:44.247Z,35.40
2019-02-22T17:35:12.807Z,35.30
2019-02-22T17:37:41.280Z,35.30
2019-02-22T17:40:12.404Z,35.20
2019-02-22T17:42:40.946Z,35.20
2019-02-22T17:45:09.499Z,35.10
2019-02-22T17:47:38.065Z,35.10
2019-02-22T17:50:10.535Z,35.40
2019-02-22T17:52:38.983Z,35.50
2019-02-22T17:55:09.282Z,35.40
2019-02-22T17:57:37.884Z,35.40
2019-02-22T18:00:11.249Z,35.40
2019-02-22T18:02:39.731Z,35.40
2019-02-22T18:05:08.361Z,35.20
2019-02-22T18:07:36.891Z,35.10
2019-02-22T18:10:08.121Z,35.10
2019-02-22T18:12:36.707Z,35.00
2019-02-22T18:15:08.071Z,35.00
2019-02-22T18:17:36.573Z,34.90
2019-02-22T18:20:07.577Z,35.00
2019-02-22T18:22:36.154Z,35.10
2019-02-22T18:25:09.056Z,35.10
2019-02-22T18:27:37.611Z,35.20
2019-02-22T18:30:09.074Z,35.10
2019-02-22T18:32:37.550Z,35.20
2019-02-22T18:35:07.071Z,35.10
2019-02-22T18:37:35.653Z,35.10
2019-02-22T18:40:07.090Z,35.10
2019-02-22T18:42:35.597Z,35.10
2019-02-22T18:45:05.258Z,34.90
2019-02-22T18:47:33.762Z,34.90
2019-02-22T18:50:02.226Z,34.90
2019-02-22T18:52:30.762Z,34.80
2019-02-22T18:54:59.300Z,34.80
2019-02-22T18:57:27.874Z,35.30
2019-02-22T18:59:56.369Z,35.30
2019-02-22T19:02:24.921Z,35.30
2019-02-22T19:04:53.473Z,35.20
2019-02-22T19:07:22.002Z,34.90
2019-02-22T19:09:50.503Z,35.00
2019-02-22T19:12:19.053Z,34.70
2019-02-22T19:14:47.625Z,34.90
2019-02-22T19:17:16.079Z,34.70
2019-02-22T19:19:44.581Z,34.80
2019-02-22T19:22:13.063Z,34.90
2019-02-22T19:24:41.622Z,35.00
2019-02-22T19:27:10.108Z,35.10
2019-02-22T19:29:38.751Z,35.10
2019-02-22T19:32:07.280Z,35.40
2019-02-22T19:34:35.739Z,35.00
2019-02-22T19:37:04.230Z,35.10
2019-02-22T19:39:32.932Z,35.10
2019-02-22T19:42:01.466Z,35.00
2019-02-22T19:44:29.961Z,34.90
2019-02-22T19:46:58.553Z,34.80
2019-02-22T19:49:27.098Z,34.80
2019-02-22T19:51:55.678Z,34.70
2019-02-22T19:54:24.159Z,34.70
2019-02-22T19:56:52.723Z,34.70
2019-02-22T19:59:21.214Z,34.80
2019-02-22T20:01:49.778Z,34.80
2019-02-22T20:04:18.264Z,34.70
2019-02-22T20:06:47.078Z,34.70
2019-02-22T20:09:15.614Z,34.70
2019-02-22T20:11:44.130Z,34.70
2019-02-22T20:14:12.627Z,34.70
2019-02-22T20:16:41.166Z,34.70
2019-02-22T20:19:09.770Z,34.60
2019-02-22T20:21:38.336Z,34.60
2019-02-22T20:24:06.890Z,34.60
2019-02-22T20:26:35.363Z,34.60
2019-02-22T20:29:03.888Z,34.60
2019-02-22T20:31:32.466Z,34.60
2019-02-22T20:34:00.991Z,34.60
2019-02-22T20:36:29.491Z,34.50
2019-02-22T20:38:58.071Z,34.60
2019-02-22T20:41:26.541Z,34.50
2019-02-22T20:43:55.042Z,34.60
2019-02-22T20:46:23.606Z,34.70
2019-02-22T20:49:00.614Z,34.70
2019-02-22T20:51:22.370Z,34.70
2019-02-22T20:53:50.916Z,34.70
2019-02-22T20:56:19.407Z,34.80
2019-02-22T20:58:47.892Z,34.60
2019-02-22T21:01:16.488Z,34.50
2019-02-22T21:03:45.014Z,34.60
2019-02-22T21:06:13.510Z,34.40
2019-02-22T21:08:42.089Z,34.40
2019-02-22T21:11:10.602Z,34.40
2019-02-22T21:13:39.193Z,34.40
2019-02-22T21:16:07.723Z,34.40
2019-02-22T21:18:36.200Z,34.30
2019-02-22T21:21:04.709Z,34.20
2019-02-22T21:23:33.268Z,34.20
2019-02-22T21:26:01.730Z,34.20
2019-02-22T21:28:30.222Z,34.20
2019-02-22T21:30:58.691Z,34.20
2019-02-22T21:33:27.178Z,34.10
2019-02-22T21:35:55.656Z,34.10
2019-02-22T21:38:24.152Z,34.10
2019-02-22T21:40:52.629Z,34.00
2019-02-22T21:43:21.150Z,34.10
2019-02-22T21:45:49.690Z,34.10
2019-02-22T21:48:27.119Z,34.00
2019-02-22T21:50:48.382Z,34.00
2019-02-22T21:53:16.876Z,33.90
2019-02-22T21:55:45.341Z,33.80
2019-02-22T21:58:13.848Z,34.50
2019-02-22T22:00:42.331Z,34.60
2019-02-22T22:03:10.873Z,34.70
2019-02-22T22:05:39.348Z,34.70
2019-02-22T22:08:07.848Z,34.80
2019-02-22T22:10:36.432Z,34.90
2019-02-22T22:13:04.976Z,34.90
2019-02-22T22:15:33.539Z,34.80
2019-02-22T22:18:02.015Z,34.90
2019-02-22T22:20:30.610Z,34.90
2019-02-22T22:22:59.155Z,34.90
2019-02-22T22:25:27.759Z,35.30
2019-02-22T22:27:56.262Z,34.90
2019-02-22T22:30:24.819Z,34.90
2019-02-22T22:32:53.301Z,34.90
2019-02-22T22:35:21.889Z,34.90
2019-02-22T22:37:50.420Z,34.90
2019-02-22T22:40:18.949Z,34.80
2019-02-22T22:42:47.518Z,34.90
2019-02-22T22:45:17.615Z,35.00
2019-02-22T22:47:46.247Z,34.90
2019-02-22T22:50:16.694Z,34.90
2019-02-22T22:52:45.261Z,34.80
2019-02-22T22:55:13.740Z,34.70
2019-02-22T22:57:42.285Z,34.70
2019-02-22T23:00:16.700Z,34.60
2019-02-22T23:02:45.258Z,34.60
2019-02-22T23:05:13.815Z,34.60
2019-02-22T23:07:42.364Z,34.60
2019-02-22T23:10:10.852Z,34.60
2019-02-22T23:12:39.386Z,34.60
2019-02-22T23:15:07.960Z,34.70
2019-02-22T23:17:36.511Z,34.80
2019-02-22T23:20:06.957Z,34.80
2019-02-22T23:22:35.498Z,34.80
2019-02-22T23:25:05.098Z,34.80
2019-02-22T23:27:33.559Z,34.90
2019-02-22T23:30:02.061Z,34.80
2019-02-22T23:32:30.611Z,34.80
2019-02-22T23:34:59.097Z,34.80
2019-02-22T23:37:27.570Z,34.70
2019-02-22T23:39:56.051Z,34.80
2019-02-22T23:42:24.509Z,34.80
2019-02-22T23:44:53.007Z,34.90
2019-02-22T23:47:21.545Z,34.80
2019-02-22T23:49:50.044Z,34.60
2019-02-22T23:52:18.580Z,34.50
2019-02-22T23:54:47.075Z,34.20
2019-02-22T23:57:15.573Z,33.90
2019-02-22T23:59:44.113Z,33.80
